sensor_id;sensor_type;location;lat;lon;timestamp;temperature;humidity
26278;DHT22;14000;52.056;8.510;2023-08-06T00:00:04;14.30;99.90
26278;DHT22;14000;52.056;8.510;2023-08-06T00:02:30;14.20;99.90
26278;DHT22;14000;52.056;8.510;2023-08-06T00:04:56;14.20;99.90
26278;DHT22;14000;52.056;8.510;2023-08-06T00:07:21;14.20;99.90
26278;DHT22;14000;52.056;8.510;2023-08-06T00:09:47;14.20;99.90
26278;DHT22;14000;52.056;8.510;2023-08-06T00:12:12;14.20;99.90
26278;DHT22;14000;52.056;8.510;2023-08-06T00:14:38;14.20;99.90
26278;DHT22;14000;52.056;8.510;2023-08-06T00:17:04;14.20;99.90
26278;DHT22;14000;52.056;8.510;2023-08-06T00:19:31;14.10;99.90
26278;DHT22;14000;52.056;8.510;2023-08-06T00:21:56;14.10;99.90
26278;DHT22;14000;52.056;8.510;2023-08-06T00:24:22;14.10;99.90
26278;DHT22;14000;52.056;8.510;2023-08-06T00:26:47;14.10;99.90
26278;DHT22;14000;52.056;8.510;2023-08-06T00:29:13;14.10;99.90
26278;DHT22;14000;52.056;8.510;2023-08-06T00:31:38;14.10;99.90
26278;DHT22;14000;52.056;8.510;2023-08-06T00:34:04;14.10;99.90
26278;DHT22;14000;52.056;8.510;2023-08-06T00:36:29;14.20;99.90
26278;DHT22;14000;52.056;8.510;2023-08-06T00:38:55;14.20;99.90
26278;DHT22;14000;52.056;8.510;2023-08-06T00:41:21;14.10;99.90
26278;DHT22;14000;52.056;8.510;2023-08-06T00:43:46;14.10;99.90
26278;DHT22;14000;52.056;8.510;2023-08-06T00:46:12;14.10;99.90
26278;DHT22;14000;52.056;8.510;2023-08-06T00:48:39;14.10;99.90
26278;DHT22;14000;52.056;8.510;2023-08-06T00:51:05;14.20;99.90
26278;DHT22;14000;52.056;8.510;2023-08-06T00:53:30;14.20;99.90
26278;DHT22;14000;52.056;8.510;2023-08-06T00:55:56;14.20;99.90
26278;DHT22;14000;52.056;8.510;2023-08-06T00:58:22;14.20;99.90
26278;DHT22;14000;52.056;8.510;2023-08-06T01:00:48;14.20;99.90
26278;DHT22;14000;52.056;8.510;2023-08-06T01:03:13;14.20;99.90
26278;DHT22;14000;52.056;8.510;2023-08-06T01:05:39;14.20;99.90
26278;DHT22;14000;52.056;8.510;2023-08-06T01:13:47;14.20;99.90
26278;DHT22;14000;52.056;8.510;2023-08-06T01:16:19;14.20;99.90
26278;DHT22;14000;52.056;8.510;2023-08-06T01:18:47;14.20;99.90
26278;DHT22;14000;52.056;8.510;2023-08-06T01:21:18;14.20;99.90
26278;DHT22;14000;52.056;8.510;2023-08-06T01:23:45;14.20;99.90
26278;DHT22;14000;52.056;8.510;2023-08-06T01:26:33;14.20;99.90
26278;DHT22;14000;52.056;8.510;2023-08-06T01:29:11;14.20;99.90
26278;DHT22;14000;52.056;8.510;2023-08-06T01:31:39;14.20;99.90
26278;DHT22;14000;52.056;8.510;2023-08-06T01:34:09;14.20;99.90
26278;DHT22;14000;52.056;8.510;2023-08-06T01:36:36;14.20;99.90
26278;DHT22;14000;52.056;8.510;2023-08-06T01:39:02;14.20;99.90
26278;DHT22;14000;52.056;8.510;2023-08-06T01:41:29;14.20;99.90
26278;DHT22;14000;52.056;8.510;2023-08-06T01:43:54;14.20;99.90
26278;DHT22;14000;52.056;8.510;2023-08-06T01:46:20;14.20;99.90
26278;DHT22;14000;52.056;8.510;2023-08-06T01:48:45;14.20;99.90
26278;DHT22;14000;52.056;8.510;2023-08-06T01:51:11;14.20;99.90
26278;DHT22;14000;52.056;8.510;2023-08-06T01:53:36;14.20;99.90
26278;DHT22;14000;52.056;8.510;2023-08-06T01:56:02;14.20;99.90
26278;DHT22;14000;52.056;8.510;2023-08-06T01:58:27;14.20;99.90
26278;DHT22;14000;52.056;8.510;2023-08-06T02:00:53;14.20;99.90
26278;DHT22;14000;52.056;8.510;2023-08-06T02:03:19;14.20;99.90
26278;DHT22;14000;52.056;8.510;2023-08-06T02:05:44;14.20;99.90
26278;DHT22;14000;52.056;8.510;2023-08-06T02:08:11;14.30;99.90
26278;DHT22;14000;52.056;8.510;2023-08-06T02:10:36;14.30;99.90
26278;DHT22;14000;52.056;8.510;2023-08-06T02:13:02;14.20;99.90
26278;DHT22;14000;52.056;8.510;2023-08-06T02:15:28;14.20;99.90
26278;DHT22;14000;52.056;8.510;2023-08-06T02:17:53;14.20;99.90
26278;DHT22;14000;52.056;8.510;2023-08-06T02:20:19;14.20;99.90
26278;DHT22;14000;52.056;8.510;2023-08-06T02:22:44;14.20;99.90
26278;DHT22;14000;52.056;8.510;2023-08-06T02:25:10;14.20;99.90
26278;DHT22;14000;52.056;8.510;2023-08-06T02:27:37;14.20;99.90
26278;DHT22;14000;52.056;8.510;2023-08-06T02:30:03;14.20;99.90
26278;DHT22;14000;52.056;8.510;2023-08-06T02:32:29;14.20;99.90
26278;DHT22;14000;52.056;8.510;2023-08-06T02:34:57;14.20;99.90
26278;DHT22;14000;52.056;8.510;2023-08-06T02:37:22;14.10;99.90
26278;DHT22;14000;52.056;8.510;2023-08-06T02:39:48;14.10;99.90
26278;DHT22;14000;52.056;8.510;2023-08-06T02:42:13;14.10;99.90
26278;DHT22;14000;52.056;8.510;2023-08-06T02:44:39;14.10;99.90
26278;DHT22;14000;52.056;8.510;2023-08-06T02:47:05;14.10;99.90
26278;DHT22;14000;52.056;8.510;2023-08-06T02:49:30;14.10;99.90
26278;DHT22;14000;52.056;8.510;2023-08-06T02:51:56;14.00;99.90
26278;DHT22;14000;52.056;8.510;2023-08-06T02:54:21;14.00;99.90
26278;DHT22;14000;52.056;8.510;2023-08-06T02:56:47;13.90;99.90
26278;DHT22;14000;52.056;8.510;2023-08-06T02:59:13;13.90;99.90
26278;DHT22;14000;52.056;8.510;2023-08-06T03:01:39;13.90;99.90
26278;DHT22;14000;52.056;8.510;2023-08-06T03:04:05;13.90;99.90
26278;DHT22;14000;52.056;8.510;2023-08-06T03:06:30;13.90;99.90
26278;DHT22;14000;52.056;8.510;2023-08-06T03:08:56;13.90;99.90
26278;DHT22;14000;52.056;8.510;2023-08-06T03:11:22;13.90;99.90
26278;DHT22;14000;52.056;8.510;2023-08-06T03:13:48;13.90;99.90
26278;DHT22;14000;52.056;8.510;2023-08-06T03:16:14;13.90;99.90
26278;DHT22;14000;52.056;8.510;2023-08-06T03:18:39;13.90;99.90
26278;DHT22;14000;52.056;8.510;2023-08-06T03:21:05;13.90;99.90
26278;DHT22;14000;52.056;8.510;2023-08-06T03:23:31;13.80;99.90
26278;DHT22;14000;52.056;8.510;2023-08-06T03:26:01;13.80;99.90
26278;DHT22;14000;52.056;8.510;2023-08-06T03:28:27;13.70;99.90
26278;DHT22;14000;52.056;8.510;2023-08-06T03:31:02;13.70;99.90
26278;DHT22;14000;52.056;8.510;2023-08-06T03:33:28;13.70;99.90
26278;DHT22;14000;52.056;8.510;2023-08-06T03:35:54;13.70;99.90
26278;DHT22;14000;52.056;8.510;2023-08-06T03:38:19;13.70;99.90
26278;DHT22;14000;52.056;8.510;2023-08-06T03:40:46;13.60;99.90
26278;DHT22;14000;52.056;8.510;2023-08-06T03:43:12;13.60;99.90
26278;DHT22;14000;52.056;8.510;2023-08-06T03:45:37;13.60;99.90
26278;DHT22;14000;52.056;8.510;2023-08-06T03:48:03;13.60;99.90
26278;DHT22;14000;52.056;8.510;2023-08-06T03:50:29;13.60;99.90
26278;DHT22;14000;52.056;8.510;2023-08-06T03:52:54;13.50;99.90
26278;DHT22;14000;52.056;8.510;2023-08-06T03:55:20;13.60;99.90
26278;DHT22;14000;52.056;8.510;2023-08-06T03:57:46;13.50;99.90
26278;DHT22;14000;52.056;8.510;2023-08-06T04:00:11;13.50;99.90
26278;DHT22;14000;52.056;8.510;2023-08-06T04:02:38;13.50;99.90
26278;DHT22;14000;52.056;8.510;2023-08-06T04:05:03;13.40;99.90
26278;DHT22;14000;52.056;8.510;2023-08-06T04:07:29;13.50;99.90
26278;DHT22;14000;52.056;8.510;2023-08-06T04:09:59;13.50;99.90
26278;DHT22;14000;52.056;8.510;2023-08-06T04:12:25;13.50;99.90
26278;DHT22;14000;52.056;8.510;2023-08-06T04:14:52;13.50;99.90
26278;DHT22;14000;52.056;8.510;2023-08-06T04:17:18;13.50;99.90
26278;DHT22;14000;52.056;8.510;2023-08-06T04:19:52;13.50;99.90
26278;DHT22;14000;52.056;8.510;2023-08-06T04:22:19;13.50;99.90
26278;DHT22;14000;52.056;8.510;2023-08-06T04:24:45;13.50;99.90
26278;DHT22;14000;52.056;8.510;2023-08-06T04:27:11;13.50;99.90
26278;DHT22;14000;52.056;8.510;2023-08-06T04:29:37;13.50;99.90
26278;DHT22;14000;52.056;8.510;2023-08-06T04:32:08;13.60;99.90
26278;DHT22;14000;52.056;8.510;2023-08-06T04:34:34;13.60;99.90
26278;DHT22;14000;52.056;8.510;2023-08-06T04:37:00;13.60;99.90
26278;DHT22;14000;52.056;8.510;2023-08-06T04:39:26;13.60;99.90
26278;DHT22;14000;52.056;8.510;2023-08-06T04:41:52;13.70;99.90
26278;DHT22;14000;52.056;8.510;2023-08-06T04:44:18;13.60;99.90
26278;DHT22;14000;52.056;8.510;2023-08-06T04:46:43;13.60;99.90
26278;DHT22;14000;52.056;8.510;2023-08-06T04:49:09;13.60;99.90
26278;DHT22;14000;52.056;8.510;2023-08-06T04:51:35;13.60;99.90
26278;DHT22;14000;52.056;8.510;2023-08-06T04:54:00;13.60;99.90
26278;DHT22;14000;52.056;8.510;2023-08-06T04:56:26;13.70;99.90
26278;DHT22;14000;52.056;8.510;2023-08-06T04:58:52;13.70;99.90
26278;DHT22;14000;52.056;8.510;2023-08-06T05:01:18;13.70;99.90
26278;DHT22;14000;52.056;8.510;2023-08-06T05:03:43;13.70;99.90
26278;DHT22;14000;52.056;8.510;2023-08-06T05:06:09;13.60;99.90
26278;DHT22;14000;52.056;8.510;2023-08-06T05:08:36;13.70;99.90
26278;DHT22;14000;52.056;8.510;2023-08-06T05:11:01;13.70;99.90
26278;DHT22;14000;52.056;8.510;2023-08-06T05:13:27;13.70;99.90
26278;DHT22;14000;52.056;8.510;2023-08-06T05:15:56;13.70;99.90
26278;DHT22;14000;52.056;8.510;2023-08-06T05:18:21;13.70;99.90
26278;DHT22;14000;52.056;8.510;2023-08-06T05:20:48;13.70;99.90
26278;DHT22;14000;52.056;8.510;2023-08-06T05:23:13;13.80;99.90
26278;DHT22;14000;52.056;8.510;2023-08-06T05:25:39;13.80;99.90
26278;DHT22;14000;52.056;8.510;2023-08-06T05:28:05;13.80;99.90
26278;DHT22;14000;52.056;8.510;2023-08-06T05:30:30;13.90;99.90
26278;DHT22;14000;52.056;8.510;2023-08-06T05:32:56;13.90;99.90
26278;DHT22;14000;52.056;8.510;2023-08-06T05:35:22;13.90;99.90
26278;DHT22;14000;52.056;8.510;2023-08-06T05:37:49;14.00;99.90
26278;DHT22;14000;52.056;8.510;2023-08-06T05:40:15;14.00;99.90
26278;DHT22;14000;52.056;8.510;2023-08-06T05:42:41;14.10;99.90
26278;DHT22;14000;52.056;8.510;2023-08-06T05:45:07;14.10;99.90
26278;DHT22;14000;52.056;8.510;2023-08-06T05:47:33;14.10;99.90
26278;DHT22;14000;52.056;8.510;2023-08-06T05:49:58;14.20;99.90
26278;DHT22;14000;52.056;8.510;2023-08-06T05:52:24;14.10;99.90
26278;DHT22;14000;52.056;8.510;2023-08-06T05:54:49;14.10;99.90
26278;DHT22;14000;52.056;8.510;2023-08-06T05:57:15;14.20;99.90
26278;DHT22;14000;52.056;8.510;2023-08-06T05:59:41;14.20;99.90
26278;DHT22;14000;52.056;8.510;2023-08-06T06:02:07;14.30;99.90
26278;DHT22;14000;52.056;8.510;2023-08-06T06:04:32;14.20;99.90
26278;DHT22;14000;52.056;8.510;2023-08-06T06:06:58;14.30;99.90
26278;DHT22;14000;52.056;8.510;2023-08-06T06:09:24;14.20;99.90
26278;DHT22;14000;52.056;8.510;2023-08-06T06:11:49;14.30;99.90
26278;DHT22;14000;52.056;8.510;2023-08-06T06:14:18;14.30;99.90
26278;DHT22;14000;52.056;8.510;2023-08-06T06:16:45;14.30;99.90
26278;DHT22;14000;52.056;8.510;2023-08-06T06:19:11;14.40;99.90
26278;DHT22;14000;52.056;8.510;2023-08-06T06:21:37;14.40;99.90
26278;DHT22;14000;52.056;8.510;2023-08-06T06:24:04;14.50;99.90
26278;DHT22;14000;52.056;8.510;2023-08-06T06:26:30;14.40;99.90
26278;DHT22;14000;52.056;8.510;2023-08-06T06:28:56;14.40;99.90
26278;DHT22;14000;52.056;8.510;2023-08-06T06:31:22;14.50;99.90
26278;DHT22;14000;52.056;8.510;2023-08-06T06:33:47;14.50;99.90
26278;DHT22;14000;52.056;8.510;2023-08-06T06:36:13;14.50;99.90
26278;DHT22;14000;52.056;8.510;2023-08-06T06:38:38;14.50;99.90
26278;DHT22;14000;52.056;8.510;2023-08-06T06:41:04;14.60;99.90
26278;DHT22;14000;52.056;8.510;2023-08-06T06:43:30;14.70;99.90
26278;DHT22;14000;52.056;8.510;2023-08-06T06:45:56;14.80;99.90
26278;DHT22;14000;52.056;8.510;2023-08-06T06:48:23;14.90;99.90
26278;DHT22;14000;52.056;8.510;2023-08-06T06:50:49;14.90;99.90
26278;DHT22;14000;52.056;8.510;2023-08-06T06:53:15;15.00;99.90
26278;DHT22;14000;52.056;8.510;2023-08-06T06:55:40;15.10;99.90
26278;DHT22;14000;52.056;8.510;2023-08-06T06:58:06;15.20;99.90
26278;DHT22;14000;52.056;8.510;2023-08-06T07:00:31;15.20;99.90
26278;DHT22;14000;52.056;8.510;2023-08-06T07:02:57;15.20;99.90
26278;DHT22;14000;52.056;8.510;2023-08-06T07:05:22;15.40;99.90
26278;DHT22;14000;52.056;8.510;2023-08-06T07:07:48;15.40;99.90
26278;DHT22;14000;52.056;8.510;2023-08-06T07:10:13;15.60;99.90
26278;DHT22;14000;52.056;8.510;2023-08-06T07:12:39;15.60;99.90
26278;DHT22;14000;52.056;8.510;2023-08-06T07:15:06;15.70;99.90
26278;DHT22;14000;52.056;8.510;2023-08-06T07:17:32;15.80;99.90
26278;DHT22;14000;52.056;8.510;2023-08-06T07:19:58;15.80;99.90
26278;DHT22;14000;52.056;8.510;2023-08-06T07:22:23;15.80;99.90
26278;DHT22;14000;52.056;8.510;2023-08-06T07:24:49;15.70;99.90
26278;DHT22;14000;52.056;8.510;2023-08-06T07:27:14;15.80;99.90
26278;DHT22;14000;52.056;8.510;2023-08-06T07:29:40;15.80;99.90
26278;DHT22;14000;52.056;8.510;2023-08-06T07:32:07;15.90;99.90
26278;DHT22;14000;52.056;8.510;2023-08-06T07:34:32;16.00;99.90
26278;DHT22;14000;52.056;8.510;2023-08-06T07:36:58;16.10;99.90
26278;DHT22;14000;52.056;8.510;2023-08-06T07:39:24;16.10;99.90
26278;DHT22;14000;52.056;8.510;2023-08-06T07:41:50;16.00;99.90
26278;DHT22;14000;52.056;8.510;2023-08-06T07:44:15;16.10;99.90
26278;DHT22;14000;52.056;8.510;2023-08-06T07:46:41;16.20;99.90
26278;DHT22;14000;52.056;8.510;2023-08-06T07:49:08;16.30;99.90
26278;DHT22;14000;52.056;8.510;2023-08-06T07:51:33;16.40;99.90
26278;DHT22;14000;52.056;8.510;2023-08-06T07:53:59;16.60;99.90
26278;DHT22;14000;52.056;8.510;2023-08-06T07:56:25;16.60;99.90
26278;DHT22;14000;52.056;8.510;2023-08-06T07:58:50;16.80;99.90
26278;DHT22;14000;52.056;8.510;2023-08-06T08:01:16;16.80;99.90
26278;DHT22;14000;52.056;8.510;2023-08-06T08:03:41;16.90;99.90
26278;DHT22;14000;52.056;8.510;2023-08-06T08:06:07;16.90;99.90
26278;DHT22;14000;52.056;8.510;2023-08-06T08:08:32;17.00;99.90
26278;DHT22;14000;52.056;8.510;2023-08-06T08:10:58;17.00;99.90
26278;DHT22;14000;52.056;8.510;2023-08-06T08:13:26;17.10;99.90
26278;DHT22;14000;52.056;8.510;2023-08-06T08:15:56;17.20;99.90
26278;DHT22;14000;52.056;8.510;2023-08-06T08:18:22;17.40;99.90
26278;DHT22;14000;52.056;8.510;2023-08-06T08:20:48;17.50;99.90
26278;DHT22;14000;52.056;8.510;2023-08-06T08:23:14;17.70;99.90
26278;DHT22;14000;52.056;8.510;2023-08-06T08:25:39;17.70;99.90
26278;DHT22;14000;52.056;8.510;2023-08-06T08:28:05;17.60;99.90
26278;DHT22;14000;52.056;8.510;2023-08-06T08:30:30;17.60;99.90
26278;DHT22;14000;52.056;8.510;2023-08-06T08:32:56;17.60;99.90
26278;DHT22;14000;52.056;8.510;2023-08-06T08:35:21;17.60;99.90
26278;DHT22;14000;52.056;8.510;2023-08-06T08:37:47;17.50;99.90
26278;DHT22;14000;52.056;8.510;2023-08-06T08:40:14;17.50;99.90
26278;DHT22;14000;52.056;8.510;2023-08-06T08:42:40;17.50;99.90
26278;DHT22;14000;52.056;8.510;2023-08-06T08:45:11;17.50;99.90
26278;DHT22;14000;52.056;8.510;2023-08-06T08:47:38;17.70;99.90
26278;DHT22;14000;52.056;8.510;2023-08-06T08:50:05;17.70;99.90
26278;DHT22;14000;52.056;8.510;2023-08-06T08:52:32;17.80;99.90
26278;DHT22;14000;52.056;8.510;2023-08-06T08:55:01;17.80;99.90
26278;DHT22;14000;52.056;8.510;2023-08-06T08:57:27;17.80;99.90
26278;DHT22;14000;52.056;8.510;2023-08-06T08:59:53;17.90;99.90
26278;DHT22;14000;52.056;8.510;2023-08-06T09:02:19;17.90;99.90
26278;DHT22;14000;52.056;8.510;2023-08-06T09:04:46;17.90;99.90
26278;DHT22;14000;52.056;8.510;2023-08-06T09:07:17;17.90;99.90
26278;DHT22;14000;52.056;8.510;2023-08-06T09:09:43;17.90;99.90
26278;DHT22;14000;52.056;8.510;2023-08-06T09:12:14;18.00;99.90
26278;DHT22;14000;52.056;8.510;2023-08-06T09:14:40;17.90;99.90
26278;DHT22;14000;52.056;8.510;2023-08-06T09:17:06;17.90;99.90
26278;DHT22;14000;52.056;8.510;2023-08-06T09:19:32;17.80;99.90
26278;DHT22;14000;52.056;8.510;2023-08-06T09:21:58;17.80;99.90
26278;DHT22;14000;52.056;8.510;2023-08-06T09:24:24;17.80;99.90
26278;DHT22;14000;52.056;8.510;2023-08-06T09:26:51;17.70;99.90
26278;DHT22;14000;52.056;8.510;2023-08-06T09:29:17;17.70;99.90
26278;DHT22;14000;52.056;8.510;2023-08-06T09:34:16;17.80;99.90
26278;DHT22;14000;52.056;8.510;2023-08-06T09:36:43;17.80;99.90
26278;DHT22;14000;52.056;8.510;2023-08-06T09:39:19;17.90;99.90
26278;DHT22;14000;52.056;8.510;2023-08-06T09:41:45;17.90;99.90
26278;DHT22;14000;52.056;8.510;2023-08-06T09:44:24;17.90;99.90
26278;DHT22;14000;52.056;8.510;2023-08-06T09:46:51;17.90;99.90
26278;DHT22;14000;52.056;8.510;2023-08-06T09:49:28;18.00;99.90
26278;DHT22;14000;52.056;8.510;2023-08-06T09:51:54;18.00;99.90
26278;DHT22;14000;52.056;8.510;2023-08-06T09:54:25;18.20;99.90
26278;DHT22;14000;52.056;8.510;2023-08-06T09:56:53;18.10;99.90
26278;DHT22;14000;52.056;8.510;2023-08-06T09:59:19;18.30;99.90
26278;DHT22;14000;52.056;8.510;2023-08-06T10:01:45;18.50;99.90
26278;DHT22;14000;52.056;8.510;2023-08-06T10:04:13;18.50;99.90
26278;DHT22;14000;52.056;8.510;2023-08-06T10:06:42;18.70;99.90
26278;DHT22;14000;52.056;8.510;2023-08-06T10:09:08;18.80;99.90
26278;DHT22;14000;52.056;8.510;2023-08-06T10:11:36;18.90;99.90
26278;DHT22;14000;52.056;8.510;2023-08-06T10:14:13;19.10;99.90
26278;DHT22;14000;52.056;8.510;2023-08-06T10:16:40;19.20;99.90
26278;DHT22;14000;52.056;8.510;2023-08-06T10:19:09;19.10;99.90
26278;DHT22;14000;52.056;8.510;2023-08-06T10:21:35;19.10;99.90
26278;DHT22;14000;52.056;8.510;2023-08-06T10:24:01;19.30;99.90
26278;DHT22;14000;52.056;8.510;2023-08-06T10:26:30;19.20;99.90
26278;DHT22;14000;52.056;8.510;2023-08-06T10:28:56;19.30;99.90
26278;DHT22;14000;52.056;8.510;2023-08-06T10:31:53;19.40;99.90
26278;DHT22;14000;52.056;8.510;2023-08-06T10:34:20;19.50;99.90
26278;DHT22;14000;52.056;8.510;2023-08-06T10:36:46;19.50;99.90
26278;DHT22;14000;52.056;8.510;2023-08-06T10:39:14;19.40;99.90
26278;DHT22;14000;52.056;8.510;2023-08-06T10:41:42;19.50;99.90
26278;DHT22;14000;52.056;8.510;2023-08-06T10:44:10;19.50;99.90
26278;DHT22;14000;52.056;8.510;2023-08-06T10:46:36;19.60;99.90
26278;DHT22;14000;52.056;8.510;2023-08-06T10:49:03;19.60;99.90
26278;DHT22;14000;52.056;8.510;2023-08-06T10:51:29;19.60;99.90
26278;DHT22;14000;52.056;8.510;2023-08-06T10:53:54;19.50;99.90
26278;DHT22;14000;52.056;8.510;2023-08-06T10:56:22;19.50;99.90
26278;DHT22;14000;52.056;8.510;2023-08-06T10:58:49;19.40;99.90
26278;DHT22;14000;52.056;8.510;2023-08-06T11:01:15;19.30;99.90
26278;DHT22;14000;52.056;8.510;2023-08-06T11:03:42;19.30;99.90
26278;DHT22;14000;52.056;8.510;2023-08-06T11:06:09;19.20;99.90
26278;DHT22;14000;52.056;8.510;2023-08-06T11:08:37;19.30;99.90
26278;DHT22;14000;52.056;8.510;2023-08-06T11:11:10;19.40;99.90
26278;DHT22;14000;52.056;8.510;2023-08-06T11:13:37;19.50;99.90
26278;DHT22;14000;52.056;8.510;2023-08-06T11:16:05;19.60;99.90
26278;DHT22;14000;52.056;8.510;2023-08-06T11:18:32;19.70;99.90
26278;DHT22;14000;52.056;8.510;2023-08-06T11:21:01;19.80;99.90
26278;DHT22;14000;52.056;8.510;2023-08-06T11:23:27;19.80;99.90
26278;DHT22;14000;52.056;8.510;2023-08-06T11:25:54;20.90;99.90
26278;DHT22;14000;52.056;8.510;2023-08-06T11:28:20;22.50;99.90
26278;DHT22;14000;52.056;8.510;2023-08-06T11:30:52;24.20;99.90
26278;DHT22;14000;52.056;8.510;2023-08-06T11:33:25;24.70;99.90
26278;DHT22;14000;52.056;8.510;2023-08-06T11:35:51;24.40;99.90
26278;DHT22;14000;52.056;8.510;2023-08-06T11:38:17;24.40;99.90
26278;DHT22;14000;52.056;8.510;2023-08-06T11:40:50;24.20;99.90
26278;DHT22;14000;52.056;8.510;2023-08-06T11:43:18;23.90;99.90
26278;DHT22;14000;52.056;8.510;2023-08-06T11:45:44;23.50;99.90
26278;DHT22;14000;52.056;8.510;2023-08-06T11:48:10;23.90;99.90
26278;DHT22;14000;52.056;8.510;2023-08-06T11:50:37;23.70;99.90
26278;DHT22;14000;52.056;8.510;2023-08-06T11:53:04;23.30;99.90
26278;DHT22;14000;52.056;8.510;2023-08-06T11:55:30;23.60;99.90
26278;DHT22;14000;52.056;8.510;2023-08-06T11:57:56;24.40;99.90
26278;DHT22;14000;52.056;8.510;2023-08-06T12:00:25;25.40;99.90
26278;DHT22;14000;52.056;8.510;2023-08-06T12:02:52;25.20;99.90
26278;DHT22;14000;52.056;8.510;2023-08-06T12:05:19;25.00;99.90
26278;DHT22;14000;52.056;8.510;2023-08-06T12:07:54;24.90;99.90
26278;DHT22;14000;52.056;8.510;2023-08-06T12:10:21;24.60;99.90
26278;DHT22;14000;52.056;8.510;2023-08-06T12:12:47;24.30;99.90
26278;DHT22;14000;52.056;8.510;2023-08-06T12:15:14;24.30;99.90
26278;DHT22;14000;52.056;8.510;2023-08-06T12:17:39;24.30;99.90
26278;DHT22;14000;52.056;8.510;2023-08-06T12:20:06;24.20;99.90
26278;DHT22;14000;52.056;8.510;2023-08-06T12:22:33;23.80;99.90
26278;DHT22;14000;52.056;8.510;2023-08-06T12:25:05;24.30;99.90
26278;DHT22;14000;52.056;8.510;2023-08-06T12:27:34;24.00;99.90
26278;DHT22;14000;52.056;8.510;2023-08-06T12:30:00;23.50;99.90
26278;DHT22;14000;52.056;8.510;2023-08-06T12:32:26;23.30;99.90
26278;DHT22;14000;52.056;8.510;2023-08-06T12:34:51;22.90;99.90
26278;DHT22;14000;52.056;8.510;2023-08-06T12:37:17;22.90;99.90
26278;DHT22;14000;52.056;8.510;2023-08-06T12:39:42;22.40;99.90
26278;DHT22;14000;52.056;8.510;2023-08-06T12:42:08;22.10;99.90
26278;DHT22;14000;52.056;8.510;2023-08-06T12:44:34;21.90;99.90
26278;DHT22;14000;52.056;8.510;2023-08-06T12:46:59;21.90;99.90
26278;DHT22;14000;52.056;8.510;2023-08-06T12:49:25;21.80;99.90
26278;DHT22;14000;52.056;8.510;2023-08-06T12:51:53;21.70;99.90
26278;DHT22;14000;52.056;8.510;2023-08-06T12:54:21;21.60;99.90
26278;DHT22;14000;52.056;8.510;2023-08-06T12:56:48;21.50;99.90
26278;DHT22;14000;52.056;8.510;2023-08-06T12:59:15;21.40;99.90
26278;DHT22;14000;52.056;8.510;2023-08-06T13:01:41;21.30;99.90
26278;DHT22;14000;52.056;8.510;2023-08-06T13:04:06;21.20;99.90
26278;DHT22;14000;52.056;8.510;2023-08-06T13:06:32;21.10;99.90
26278;DHT22;14000;52.056;8.510;2023-08-06T13:09:05;21.20;99.90
26278;DHT22;14000;52.056;8.510;2023-08-06T13:11:32;21.10;99.90
26278;DHT22;14000;52.056;8.510;2023-08-06T13:14:06;21.10;99.90
26278;DHT22;14000;52.056;8.510;2023-08-06T13:16:33;21.10;99.90
26278;DHT22;14000;52.056;8.510;2023-08-06T13:18:59;21.10;99.90
26278;DHT22;14000;52.056;8.510;2023-08-06T13:21:24;21.10;99.90
26278;DHT22;14000;52.056;8.510;2023-08-06T13:23:50;21.00;99.90
26278;DHT22;14000;52.056;8.510;2023-08-06T13:26:15;21.10;99.90
26278;DHT22;14000;52.056;8.510;2023-08-06T13:28:41;21.20;99.90
26278;DHT22;14000;52.056;8.510;2023-08-06T13:31:07;21.10;99.90
26278;DHT22;14000;52.056;8.510;2023-08-06T13:33:33;21.10;99.90
26278;DHT22;14000;52.056;8.510;2023-08-06T13:35:58;21.00;99.90
26278;DHT22;14000;52.056;8.510;2023-08-06T13:38:24;20.80;99.90
26278;DHT22;14000;52.056;8.510;2023-08-06T13:40:50;20.60;99.90
26278;DHT22;14000;52.056;8.510;2023-08-06T13:43:15;20.50;99.90
26278;DHT22;14000;52.056;8.510;2023-08-06T13:45:44;20.30;99.90
26278;DHT22;14000;52.056;8.510;2023-08-06T13:48:09;20.00;99.90
26278;DHT22;14000;52.056;8.510;2023-08-06T13:50:36;19.40;99.90
26278;DHT22;14000;52.056;8.510;2023-08-06T13:53:02;19.10;99.90
26278;DHT22;14000;52.056;8.510;2023-08-06T13:55:28;18.90;99.90
26278;DHT22;14000;52.056;8.510;2023-08-06T13:57:54;18.80;99.90
26278;DHT22;14000;52.056;8.510;2023-08-06T14:00:19;18.60;99.90
26278;DHT22;14000;52.056;8.510;2023-08-06T14:02:45;18.60;99.90
26278;DHT22;14000;52.056;8.510;2023-08-06T14:05:10;18.40;99.90
26278;DHT22;14000;52.056;8.510;2023-08-06T14:07:36;18.30;99.90
26278;DHT22;14000;52.056;8.510;2023-08-06T14:10:02;18.10;99.90
26278;DHT22;14000;52.056;8.510;2023-08-06T14:12:27;18.10;99.90
26278;DHT22;14000;52.056;8.510;2023-08-06T14:14:53;18.00;99.90
26278;DHT22;14000;52.056;8.510;2023-08-06T14:17:18;17.90;99.90
26278;DHT22;14000;52.056;8.510;2023-08-06T14:19:44;17.80;99.90
26278;DHT22;14000;52.056;8.510;2023-08-06T14:22:10;17.80;99.90
26278;DHT22;14000;52.056;8.510;2023-08-06T14:24:35;17.80;99.90
26278;DHT22;14000;52.056;8.510;2023-08-06T14:27:01;17.70;99.90
26278;DHT22;14000;52.056;8.510;2023-08-06T14:29:29;17.60;99.90
26278;DHT22;14000;52.056;8.510;2023-08-06T14:31:55;17.60;99.90
26278;DHT22;14000;52.056;8.510;2023-08-06T14:34:20;17.50;99.90
26278;DHT22;14000;52.056;8.510;2023-08-06T14:36:46;17.50;99.90
26278;DHT22;14000;52.056;8.510;2023-08-06T14:39:11;17.40;99.90
26278;DHT22;14000;52.056;8.510;2023-08-06T14:41:37;17.40;99.90
26278;DHT22;14000;52.056;8.510;2023-08-06T14:44:03;17.40;99.90
26278;DHT22;14000;52.056;8.510;2023-08-06T14:46:28;17.50;99.90
26278;DHT22;14000;52.056;8.510;2023-08-06T14:48:54;17.50;99.90
26278;DHT22;14000;52.056;8.510;2023-08-06T14:51:19;17.40;99.90
26278;DHT22;14000;52.056;8.510;2023-08-06T14:53:46;17.50;99.90
26278;DHT22;14000;52.056;8.510;2023-08-06T14:56:11;17.70;99.90
26278;DHT22;14000;52.056;8.510;2023-08-06T14:58:37;17.60;99.90
26278;DHT22;14000;52.056;8.510;2023-08-06T15:01:05;17.60;99.90
26278;DHT22;14000;52.056;8.510;2023-08-06T15:03:31;17.70;99.90
26278;DHT22;14000;52.056;8.510;2023-08-06T15:05:57;17.70;99.90
26278;DHT22;14000;52.056;8.510;2023-08-06T15:08:22;17.60;99.90
26278;DHT22;14000;52.056;8.510;2023-08-06T15:10:52;17.60;99.90
26278;DHT22;14000;52.056;8.510;2023-08-06T15:13:20;17.60;99.90
26278;DHT22;14000;52.056;8.510;2023-08-06T15:15:49;17.60;99.90
26278;DHT22;14000;52.056;8.510;2023-08-06T15:18:15;17.50;99.90
26278;DHT22;14000;52.056;8.510;2023-08-06T15:20:41;17.40;99.90
26278;DHT22;14000;52.056;8.510;2023-08-06T15:23:07;17.10;99.90
26278;DHT22;14000;52.056;8.510;2023-08-06T15:25:32;16.90;99.90
26278;DHT22;14000;52.056;8.510;2023-08-06T15:27:58;16.70;99.90
26278;DHT22;14000;52.056;8.510;2023-08-06T15:30:23;16.50;99.90
26278;DHT22;14000;52.056;8.510;2023-08-06T15:32:49;16.40;99.90